sensor_id;sensor_type;location;lat;lon;timestamp;P1;durP1;ratioP1;P2;durP2;ratioP2
13793;SDS011;31160;49.500;7.772;2023-04-24T00:00:47;3.13;;;0.87;;
13793;SDS011;31160;49.500;7.772;2023-04-24T00:03:13;11.90;;;1.17;;
13793;SDS011;31160;49.500;7.772;2023-04-24T00:05:40;3.30;;;0.70;;
13793;SDS011;31160;49.500;7.772;2023-04-24T00:08:08;1.23;;;0.57;;
13793;SDS011;31160;49.500;7.772;2023-04-24T00:10:34;3.37;;;0.70;;
13793;SDS011;31160;49.500;7.772;2023-04-24T00:13:01;2.43;;;0.53;;
13793;SDS011;31160;49.500;7.772;2023-04-24T00:15:28;1.43;;;0.50;;
13793;SDS011;31160;49.500;7.772;2023-04-24T00:17:55;3.27;;;0.67;;
13793;SDS011;31160;49.500;7.772;2023-04-24T00:20:21;4.03;;;0.70;;
13793;SDS011;31160;49.500;7.772;2023-04-24T00:22:48;1.70;;;0.70;;
13793;SDS011;31160;49.500;7.772;2023-04-24T00:25:15;1.37;;;0.60;;
13793;SDS011;31160;49.500;7.772;2023-04-24T00:27:42;2.93;;;0.70;;
13793;SDS011;31160;49.500;7.772;2023-04-24T00:30:09;2.03;;;0.67;;
13793;SDS011;31160;49.500;7.772;2023-04-24T00:32:36;2.53;;;0.70;;
13793;SDS011;31160;49.500;7.772;2023-04-24T00:35:02;2.13;;;0.77;;
13793;SDS011;31160;49.500;7.772;2023-04-24T00:37:30;2.93;;;0.83;;
13793;SDS011;31160;49.500;7.772;2023-04-24T00:39:56;3.33;;;0.53;;
13793;SDS011;31160;49.500;7.772;2023-04-24T00:42:23;1.00;;;0.53;;
13793;SDS011;31160;49.500;7.772;2023-04-24T00:44:51;2.90;;;1.03;;
13793;SDS011;31160;49.500;7.772;2023-04-24T00:47:19;2.63;;;0.60;;
13793;SDS011;31160;49.500;7.772;2023-04-24T00:49:48;1.60;;;0.50;;
13793;SDS011;31160;49.500;7.772;2023-04-24T00:52:14;1.23;;;0.70;;
13793;SDS011;31160;49.500;7.772;2023-04-24T00:54:44;2.97;;;0.60;;
13793;SDS011;31160;49.500;7.772;2023-04-24T00:57:13;1.67;;;0.50;;
13793;SDS011;31160;49.500;7.772;2023-04-24T00:59:41;1.20;;;0.50;;
13793;SDS011;31160;49.500;7.772;2023-04-24T01:02:09;3.20;;;0.70;;
13793;SDS011;31160;49.500;7.772;2023-04-24T01:04:37;4.10;;;0.80;;
13793;SDS011;31160;49.500;7.772;2023-04-24T01:07:04;1.97;;;0.50;;
13793;SDS011;31160;49.500;7.772;2023-04-24T01:09:37;2.90;;;0.80;;
13793;SDS011;31160;49.500;7.772;2023-04-24T01:12:06;3.37;;;0.70;;
13793;SDS011;31160;49.500;7.772;2023-04-24T01:14:33;4.53;;;0.70;;
13793;SDS011;31160;49.500;7.772;2023-04-24T01:16:59;1.40;;;0.57;;
13793;SDS011;31160;49.500;7.772;2023-04-24T01:19:26;1.60;;;0.50;;
13793;SDS011;31160;49.500;7.772;2023-04-24T01:21:53;1.87;;;0.50;;
13793;SDS011;31160;49.500;7.772;2023-04-24T01:24:24;1.93;;;0.57;;
13793;SDS011;31160;49.500;7.772;2023-04-24T01:26:51;2.10;;;0.93;;
13793;SDS011;31160;49.500;7.772;2023-04-24T01:29:18;3.50;;;0.40;;
13793;SDS011;31160;49.500;7.772;2023-04-24T01:31:45;1.20;;;0.67;;
13793;SDS011;31160;49.500;7.772;2023-04-24T01:34:12;1.10;;;0.60;;
13793;SDS011;31160;49.500;7.772;2023-04-24T01:36:39;1.93;;;0.57;;
13793;SDS011;31160;49.500;7.772;2023-04-24T01:39:08;2.30;;;0.80;;
13793;SDS011;31160;49.500;7.772;2023-04-24T01:41:35;2.00;;;0.60;;
13793;SDS011;31160;49.500;7.772;2023-04-24T01:44:02;0.70;;;0.53;;
13793;SDS011;31160;49.500;7.772;2023-04-24T01:46:29;2.03;;;0.50;;
13793;SDS011;31160;49.500;7.772;2023-04-24T01:48:58;0.90;;;0.60;;
13793;SDS011;31160;49.500;7.772;2023-04-24T01:51:26;0.80;;;0.40;;
13793;SDS011;31160;49.500;7.772;2023-04-24T01:53:53;1.03;;;0.47;;
13793;SDS011;31160;49.500;7.772;2023-04-24T01:56:20;1.90;;;0.60;;
13793;SDS011;31160;49.500;7.772;2023-04-24T01:58:49;1.63;;;0.60;;
13793;SDS011;31160;49.500;7.772;2023-04-24T02:01:18;1.10;;;0.53;;
13793;SDS011;31160;49.500;7.772;2023-04-24T02:03:46;1.33;;;0.50;;
13793;SDS011;31160;49.500;7.772;2023-04-24T02:06:13;1.33;;;0.70;;
13793;SDS011;31160;49.500;7.772;2023-04-24T02:08:40;1.80;;;0.60;;
13793;SDS011;31160;49.500;7.772;2023-04-24T02:11:10;0.87;;;0.70;;
13793;SDS011;31160;49.500;7.772;2023-04-24T02:13:37;0.97;;;0.70;;
13793;SDS011;31160;49.500;7.772;2023-04-24T02:16:03;1.93;;;0.97;;
13793;SDS011;31160;49.500;7.772;2023-04-24T02:18:30;2.03;;;0.97;;
13793;SDS011;31160;49.500;7.772;2023-04-24T02:20:57;1.53;;;0.80;;
13793;SDS011;31160;49.500;7.772;2023-04-24T02:23:24;1.93;;;0.70;;
13793;SDS011;31160;49.500;7.772;2023-04-24T02:25:51;0.93;;;0.80;;
13793;SDS011;31160;49.500;7.772;2023-04-24T02:28:19;1.27;;;0.97;;
13793;SDS011;31160;49.500;7.772;2023-04-24T02:30:46;0.70;;;0.60;;
13793;SDS011;31160;49.500;7.772;2023-04-24T02:33:12;2.80;;;1.27;;
13793;SDS011;31160;49.500;7.772;2023-04-24T02:35:39;1.00;;;0.90;;
13793;SDS011;31160;49.500;7.772;2023-04-24T02:38:06;2.30;;;1.10;;
13793;SDS011;31160;49.500;7.772;2023-04-24T02:40:32;1.13;;;1.03;;
13793;SDS011;31160;49.500;7.772;2023-04-24T02:42:59;3.73;;;1.13;;
13793;SDS011;31160;49.500;7.772;2023-04-24T02:45:26;2.70;;;1.37;;
13793;SDS011;31160;49.500;7.772;2023-04-24T02:47:52;2.20;;;1.20;;
13793;SDS011;31160;49.500;7.772;2023-04-24T02:50:19;2.70;;;1.20;;
13793;SDS011;31160;49.500;7.772;2023-04-24T02:52:46;2.37;;;0.90;;
13793;SDS011;31160;49.500;7.772;2023-04-24T02:55:13;2.70;;;1.17;;
13793;SDS011;31160;49.500;7.772;2023-04-24T02:57:39;1.23;;;1.00;;
13793;SDS011;31160;49.500;7.772;2023-04-24T03:00:07;1.57;;;1.10;;
13793;SDS011;31160;49.500;7.772;2023-04-24T03:02:35;2.23;;;1.17;;
13793;SDS011;31160;49.500;7.772;2023-04-24T03:05:02;1.23;;;1.10;;
13793;SDS011;31160;49.500;7.772;2023-04-24T03:07:30;1.30;;;1.10;;
13793;SDS011;31160;49.500;7.772;2023-04-24T03:09:58;2.43;;;1.10;;
13793;SDS011;31160;49.500;7.772;2023-04-24T03:12:25;1.23;;;1.03;;
13793;SDS011;31160;49.500;7.772;2023-04-24T03:14:52;4.77;;;1.30;;
13793;SDS011;31160;49.500;7.772;2023-04-24T03:17:18;1.70;;;1.07;;
13793;SDS011;31160;49.500;7.772;2023-04-24T03:19:45;5.63;;;1.07;;
13793;SDS011;31160;49.500;7.772;2023-04-24T03:22:12;1.20;;;0.97;;
13793;SDS011;31160;49.500;7.772;2023-04-24T03:24:40;1.40;;;1.20;;
13793;SDS011;31160;49.500;7.772;2023-04-24T03:27:06;3.37;;;1.57;;
13793;SDS011;31160;49.500;7.772;2023-04-24T03:29:52;1.93;;;1.30;;
13793;SDS011;31160;49.500;7.772;2023-04-24T03:32:32;4.23;;;1.17;;
13793;SDS011;31160;49.500;7.772;2023-04-24T03:35:00;2.53;;;1.43;;
13793;SDS011;31160;49.500;7.772;2023-04-24T03:37:27;1.83;;;1.07;;
13793;SDS011;31160;49.500;7.772;2023-04-24T03:40:17;2.80;;;1.40;;
13793;SDS011;31160;49.500;7.772;2023-04-24T03:42:43;2.70;;;1.67;;
13793;SDS011;31160;49.500;7.772;2023-04-24T03:45:10;1.60;;;1.50;;
13793;SDS011;31160;49.500;7.772;2023-04-24T03:47:40;2.13;;;1.80;;
13793;SDS011;31160;49.500;7.772;2023-04-24T03:50:07;1.93;;;1.63;;
13793;SDS011;31160;49.500;7.772;2023-04-24T03:52:35;2.77;;;1.93;;
13793;SDS011;31160;49.500;7.772;2023-04-24T03:55:03;2.40;;;1.70;;
13793;SDS011;31160;49.500;7.772;2023-04-24T03:57:35;8.97;;;6.80;;
13793;SDS011;31160;49.500;7.772;2023-04-24T04:00:10;2.40;;;2.20;;
13793;SDS011;31160;49.500;7.772;2023-04-24T04:02:42;2.90;;;1.60;;
13793;SDS011;31160;49.500;7.772;2023-04-24T04:05:09;1.90;;;1.70;;
13793;SDS011;31160;49.500;7.772;2023-04-24T04:07:36;2.70;;;1.83;;
13793;SDS011;31160;49.500;7.772;2023-04-24T04:10:03;2.60;;;2.17;;
13793;SDS011;31160;49.500;7.772;2023-04-24T04:12:30;3.63;;;2.03;;
13793;SDS011;31160;49.500;7.772;2023-04-24T04:14:57;2.37;;;1.80;;
13793;SDS011;31160;49.500;7.772;2023-04-24T04:17:23;2.73;;;1.93;;
13793;SDS011;31160;49.500;7.772;2023-04-24T04:19:50;3.43;;;1.97;;
13793;SDS011;31160;49.500;7.772;2023-04-24T04:22:17;2.63;;;1.93;;
13793;SDS011;31160;49.500;7.772;2023-04-24T04:24:47;2.30;;;1.80;;
13793;SDS011;31160;49.500;7.772;2023-04-24T04:27:14;3.10;;;2.20;;
13793;SDS011;31160;49.500;7.772;2023-04-24T04:29:48;2.23;;;1.60;;
13793;SDS011;31160;49.500;7.772;2023-04-24T04:32:16;2.20;;;2.00;;
13793;SDS011;31160;49.500;7.772;2023-04-24T04:34:42;2.93;;;2.20;;
13793;SDS011;31160;49.500;7.772;2023-04-24T04:37:11;4.53;;;2.20;;
13793;SDS011;31160;49.500;7.772;2023-04-24T04:39:48;5.27;;;2.63;;
13793;SDS011;31160;49.500;7.772;2023-04-24T04:42:18;2.53;;;2.30;;
13793;SDS011;31160;49.500;7.772;2023-04-24T04:44:45;3.47;;;2.40;;
13793;SDS011;31160;49.500;7.772;2023-04-24T04:47:17;2.50;;;2.30;;
13793;SDS011;31160;49.500;7.772;2023-04-24T04:49:44;3.17;;;2.20;;
13793;SDS011;31160;49.500;7.772;2023-04-24T04:52:17;5.00;;;2.80;;
13793;SDS011;31160;49.500;7.772;2023-04-24T04:54:48;5.10;;;2.37;;
13793;SDS011;31160;49.500;7.772;2023-04-24T04:57:14;5.77;;;2.80;;
13793;SDS011;31160;49.500;7.772;2023-04-24T04:59:41;3.53;;;2.70;;
13793;SDS011;31160;49.500;7.772;2023-04-24T05:02:14;3.93;;;2.70;;
13793;SDS011;31160;49.500;7.772;2023-04-24T05:04:42;4.00;;;3.10;;
13793;SDS011;31160;49.500;7.772;2023-04-24T05:07:09;5.17;;;2.83;;
13793;SDS011;31160;49.500;7.772;2023-04-24T05:09:38;4.03;;;2.90;;
13793;SDS011;31160;49.500;7.772;2023-04-24T05:12:06;5.43;;;2.90;;
13793;SDS011;31160;49.500;7.772;2023-04-24T05:14:40;5.73;;;3.10;;
13793;SDS011;31160;49.500;7.772;2023-04-24T05:17:07;6.10;;;4.13;;
13793;SDS011;31160;49.500;7.772;2023-04-24T05:19:34;6.13;;;3.63;;
13793;SDS011;31160;49.500;7.772;2023-04-24T05:22:04;6.40;;;3.87;;
13793;SDS011;31160;49.500;7.772;2023-04-24T05:24:36;7.23;;;4.17;;
13793;SDS011;31160;49.500;7.772;2023-04-24T05:27:18;5.33;;;3.43;;
13793;SDS011;31160;49.500;7.772;2023-04-24T05:29:47;7.53;;;3.80;;
13793;SDS011;31160;49.500;7.772;2023-04-24T05:32:14;6.77;;;3.70;;
13793;SDS011;31160;49.500;7.772;2023-04-24T05:34:40;4.90;;;3.50;;
13793;SDS011;31160;49.500;7.772;2023-04-24T05:37:08;6.50;;;3.90;;
13793;SDS011;31160;49.500;7.772;2023-04-24T05:39:36;4.20;;;3.60;;
13793;SDS011;31160;49.500;7.772;2023-04-24T05:42:03;6.80;;;4.13;;
13793;SDS011;31160;49.500;7.772;2023-04-24T05:44:30;4.80;;;3.77;;
13793;SDS011;31160;49.500;7.772;2023-04-24T05:46:58;6.00;;;3.87;;
13793;SDS011;31160;49.500;7.772;2023-04-24T05:49:25;4.50;;;3.60;;
13793;SDS011;31160;49.500;7.772;2023-04-24T05:51:52;5.13;;;3.60;;
13793;SDS011;31160;49.500;7.772;2023-04-24T05:54:19;5.57;;;3.80;;
13793;SDS011;31160;49.500;7.772;2023-04-24T05:56:45;4.97;;;3.37;;
13793;SDS011;31160;49.500;7.772;2023-04-24T05:59:19;17.07;;;3.73;;
13793;SDS011;31160;49.500;7.772;2023-04-24T06:01:46;5.93;;;3.47;;
13793;SDS011;31160;49.500;7.772;2023-04-24T06:04:17;6.33;;;3.70;;
13793;SDS011;31160;49.500;7.772;2023-04-24T06:06:45;8.03;;;3.77;;
13793;SDS011;31160;49.500;7.772;2023-04-24T06:09:12;4.07;;;3.43;;
13793;SDS011;31160;49.500;7.772;2023-04-24T06:11:38;4.07;;;2.60;;
13793;SDS011;31160;49.500;7.772;2023-04-24T06:14:08;5.93;;;3.80;;
13793;SDS011;31160;49.500;7.772;2023-04-24T06:16:35;5.63;;;2.77;;
13793;SDS011;31160;49.500;7.772;2023-04-24T06:19:10;5.43;;;2.77;;
13793;SDS011;31160;49.500;7.772;2023-04-24T06:21:36;3.00;;;2.23;;
13793;SDS011;31160;49.500;7.772;2023-04-24T06:24:04;5.87;;;2.40;;
13793;SDS011;31160;49.500;7.772;2023-04-24T06:26:31;4.03;;;2.40;;
13793;SDS011;31160;49.500;7.772;2023-04-24T06:28:58;6.40;;;2.50;;
13793;SDS011;31160;49.500;7.772;2023-04-24T06:31:26;2.70;;;2.00;;
13793;SDS011;31160;49.500;7.772;2023-04-24T06:33:53;4.03;;;2.30;;
13793;SDS011;31160;49.500;7.772;2023-04-24T06:36:20;3.20;;;1.93;;
13793;SDS011;31160;49.500;7.772;2023-04-24T06:38:46;3.10;;;1.90;;
13793;SDS011;31160;49.500;7.772;2023-04-24T06:41:13;3.20;;;1.70;;
13793;SDS011;31160;49.500;7.772;2023-04-24T06:43:40;2.57;;;1.67;;
13793;SDS011;31160;49.500;7.772;2023-04-24T06:46:07;2.33;;;1.70;;
13793;SDS011;31160;49.500;7.772;2023-04-24T06:48:34;1.67;;;1.57;;
13793;SDS011;31160;49.500;7.772;2023-04-24T06:51:01;4.00;;;1.90;;
13793;SDS011;31160;49.500;7.772;2023-04-24T06:53:27;3.17;;;1.80;;
13793;SDS011;31160;49.500;7.772;2023-04-24T06:55:54;3.00;;;1.80;;
13793;SDS011;31160;49.500;7.772;2023-04-24T06:58:21;4.20;;;1.83;;
13793;SDS011;31160;49.500;7.772;2023-04-24T07:00:48;2.90;;;2.00;;
13793;SDS011;31160;49.500;7.772;2023-04-24T07:03:15;3.60;;;1.60;;
13793;SDS011;31160;49.500;7.772;2023-04-24T07:05:42;1.77;;;1.57;;
13793;SDS011;31160;49.500;7.772;2023-04-24T07:08:08;3.00;;;1.90;;
13793;SDS011;31160;49.500;7.772;2023-04-24T07:10:37;2.20;;;1.30;;
13793;SDS011;31160;49.500;7.772;2023-04-24T07:13:04;3.37;;;1.70;;
13793;SDS011;31160;49.500;7.772;2023-04-24T07:15:30;1.47;;;1.20;;
13793;SDS011;31160;49.500;7.772;2023-04-24T07:17:58;2.13;;;1.47;;
13793;SDS011;31160;49.500;7.772;2023-04-24T07:20:25;1.30;;;1.20;;
13793;SDS011;31160;49.500;7.772;2023-04-24T07:22:52;2.37;;;1.30;;
13793;SDS011;31160;49.500;7.772;2023-04-24T07:25:20;1.67;;;1.07;;
13793;SDS011;31160;49.500;7.772;2023-04-24T07:27:46;2.00;;;1.30;;
13793;SDS011;31160;49.500;7.772;2023-04-24T07:30:15;1.77;;;1.10;;
13793;SDS011;31160;49.500;7.772;2023-04-24T07:32:41;1.47;;;1.23;;
13793;SDS011;31160;49.500;7.772;2023-04-24T07:35:08;1.40;;;1.30;;
13793;SDS011;31160;49.500;7.772;2023-04-24T07:37:36;1.43;;;1.17;;
13793;SDS011;31160;49.500;7.772;2023-04-24T07:40:02;2.13;;;1.33;;
13793;SDS011;31160;49.500;7.772;2023-04-24T07:42:30;3.07;;;1.57;;
13793;SDS011;31160;49.500;7.772;2023-04-24T07:44:57;1.67;;;1.37;;
13793;SDS011;31160;49.500;7.772;2023-04-24T07:47:25;2.13;;;1.40;;
13793;SDS011;31160;49.500;7.772;2023-04-24T07:49:52;1.47;;;1.20;;
13793;SDS011;31160;49.500;7.772;2023-04-24T07:52:19;2.57;;;1.67;;
13793;SDS011;31160;49.500;7.772;2023-04-24T07:54:46;2.60;;;1.40;;
13793;SDS011;31160;49.500;7.772;2023-04-24T07:57:12;3.70;;;1.60;;
13793;SDS011;31160;49.500;7.772;2023-04-24T07:59:39;3.10;;;1.53;;
13793;SDS011;31160;49.500;7.772;2023-04-24T08:02:06;1.60;;;1.50;;
13793;SDS011;31160;49.500;7.772;2023-04-24T08:04:33;2.43;;;1.70;;
13793;SDS011;31160;49.500;7.772;2023-04-24T08:07:00;1.53;;;1.23;;
13793;SDS011;31160;49.500;7.772;2023-04-24T08:09:27;2.73;;;1.20;;
13793;SDS011;31160;49.500;7.772;2023-04-24T08:11:54;2.20;;;1.40;;
13793;SDS011;31160;49.500;7.772;2023-04-24T08:14:20;2.93;;;1.57;;
13793;SDS011;31160;49.500;7.772;2023-04-24T08:16:47;1.83;;;1.50;;
13793;SDS011;31160;49.500;7.772;2023-04-24T08:19:14;2.80;;;1.60;;
13793;SDS011;31160;49.500;7.772;2023-04-24T08:21:41;2.70;;;1.90;;
13793;SDS011;31160;49.500;7.772;2023-04-24T08:24:07;3.97;;;1.90;;
13793;SDS011;31160;49.500;7.772;2023-04-24T08:26:34;2.10;;;1.70;;
13793;SDS011;31160;49.500;7.772;2023-04-24T08:29:01;4.53;;;1.70;;
13793;SDS011;31160;49.500;7.772;2023-04-24T08:31:28;2.60;;;1.60;;
13793;SDS011;31160;49.500;7.772;2023-04-24T08:33:55;3.97;;;2.10;;
13793;SDS011;31160;49.500;7.772;2023-04-24T08:36:21;3.03;;;2.00;;
13793;SDS011;31160;49.500;7.772;2023-04-24T08:38:58;2.77;;;1.47;;
13793;SDS011;31160;49.500;7.772;2023-04-24T08:41:25;4.60;;;2.00;;
13793;SDS011;31160;49.500;7.772;2023-04-24T08:43:53;1.93;;;1.50;;
13793;SDS011;31160;49.500;7.772;2023-04-24T08:46:24;2.07;;;1.60;;
13793;SDS011;31160;49.500;7.772;2023-04-24T08:48:51;4.37;;;1.80;;
13793;SDS011;31160;49.500;7.772;2023-04-24T08:51:18;2.73;;;1.80;;
13793;SDS011;31160;49.500;7.772;2023-04-24T08:53:46;4.50;;;2.27;;
13793;SDS011;31160;49.500;7.772;2023-04-24T08:56:13;4.73;;;2.23;;
13793;SDS011;31160;49.500;7.772;2023-04-24T08:58:40;3.47;;;2.00;;
13793;SDS011;31160;49.500;7.772;2023-04-24T09:01:08;4.63;;;2.20;;
13793;SDS011;31160;49.500;7.772;2023-04-24T09:03:36;2.43;;;2.23;;
13793;SDS011;31160;49.500;7.772;2023-04-24T09:06:04;3.60;;;2.47;;
13793;SDS011;31160;49.500;7.772;2023-04-24T09:08:34;2.70;;;2.30;;
13793;SDS011;31160;49.500;7.772;2023-04-24T09:11:02;5.03;;;3.47;;
13793;SDS011;31160;49.500;7.772;2023-04-24T09:13:30;2.63;;;1.90;;
13793;SDS011;31160;49.500;7.772;2023-04-24T09:15:57;2.47;;;1.63;;
13793;SDS011;31160;49.500;7.772;2023-04-24T09:18:26;5.17;;;1.83;;
13793;SDS011;31160;49.500;7.772;2023-04-24T09:20:56;2.70;;;2.13;;
13793;SDS011;31160;49.500;7.772;2023-04-24T09:23:25;2.27;;;1.60;;
13793;SDS011;31160;49.500;7.772;2023-04-24T09:25:56;2.90;;;1.60;;
13793;SDS011;31160;49.500;7.772;2023-04-24T09:28:25;7.33;;;1.83;;
13793;SDS011;31160;49.500;7.772;2023-04-24T09:36:39;3.07;;;1.73;;
13793;SDS011;31160;49.500;7.772;2023-04-24T09:39:09;2.67;;;1.73;;
13793;SDS011;31160;49.500;7.772;2023-04-24T09:41:44;3.83;;;1.70;;
13793;SDS011;31160;49.500;7.772;2023-04-24T09:44:13;2.53;;;1.93;;
13793;SDS011;31160;49.500;7.772;2023-04-24T09:46:51;2.27;;;2.00;;
13793;SDS011;31160;49.500;7.772;2023-04-24T09:49:25;2.43;;;1.90;;
13793;SDS011;31160;49.500;7.772;2023-04-24T09:52:06;2.77;;;1.93;;
13793;SDS011;31160;49.500;7.772;2023-04-24T09:54:34;3.23;;;1.93;;
13793;SDS011;31160;49.500;7.772;2023-04-24T09:57:03;4.37;;;2.60;;
13793;SDS011;31160;49.500;7.772;2023-04-24T09:59:30;2.87;;;2.30;;
13793;SDS011;31160;49.500;7.772;2023-04-24T10:01:57;3.03;;;2.00;;
13793;SDS011;31160;49.500;7.772;2023-04-24T10:04:26;3.83;;;2.00;;
13793;SDS011;31160;49.500;7.772;2023-04-24T10:06:55;3.60;;;2.17;;
13793;SDS011;31160;49.500;7.772;2023-04-24T10:09:23;6.23;;;2.37;;
13793;SDS011;31160;49.500;7.772;2023-04-24T10:11:52;5.00;;;2.37;;
13793;SDS011;31160;49.500;7.772;2023-04-24T10:14:23;4.47;;;2.00;;
13793;SDS011;31160;49.500;7.772;2023-04-24T10:16:52;5.43;;;2.17;;
13793;SDS011;31160;49.500;7.772;2023-04-24T10:19:20;4.27;;;2.00;;
13793;SDS011;31160;49.500;7.772;2023-04-24T10:21:47;12.43;;;2.20;;
13793;SDS011;31160;49.500;7.772;2023-04-24T10:24:17;3.40;;;2.20;;
13793;SDS011;31160;49.500;7.772;2023-04-24T10:26:46;4.23;;;2.60;;
13793;SDS011;31160;49.500;7.772;2023-04-24T10:29:15;3.80;;;2.50;;
13793;SDS011;31160;49.500;7.772;2023-04-24T10:31:43;3.43;;;2.50;;
13793;SDS011;31160;49.500;7.772;2023-04-24T10:34:12;3.37;;;2.40;;
13793;SDS011;31160;49.500;7.772;2023-04-24T10:36:46;4.20;;;2.70;;
13793;SDS011;31160;49.500;7.772;2023-04-24T10:39:16;3.17;;;2.30;;
13793;SDS011;31160;49.500;7.772;2023-04-24T10:41:44;5.03;;;2.67;;
13793;SDS011;31160;49.500;7.772;2023-04-24T10:44:13;4.73;;;2.60;;
13793;SDS011;31160;49.500;7.772;2023-04-24T10:46:45;4.00;;;2.60;;
13793;SDS011;31160;49.500;7.772;2023-04-24T10:49:16;3.83;;;2.90;;
13793;SDS011;31160;49.500;7.772;2023-04-24T10:51:46;6.37;;;2.50;;
13793;SDS011;31160;49.500;7.772;2023-04-24T10:54:29;3.97;;;2.60;;
13793;SDS011;31160;49.500;7.772;2023-04-24T10:59:49;4.63;;;2.40;;
13793;SDS011;31160;49.500;7.772;2023-04-24T11:02:18;3.80;;;2.57;;
13793;SDS011;31160;49.500;7.772;2023-04-24T11:05:03;4.77;;;2.50;;
13793;SDS011;31160;49.500;7.772;2023-04-24T11:08:08;6.33;;;3.10;;
13793;SDS011;31160;49.500;7.772;2023-04-24T11:10:46;5.50;;;2.90;;
13793;SDS011;31160;49.500;7.772;2023-04-24T11:13:14;8.33;;;5.20;;
13793;SDS011;31160;49.500;7.772;2023-04-24T11:15:42;5.83;;;2.90;;
13793;SDS011;31160;49.500;7.772;2023-04-24T11:18:13;5.73;;;3.23;;
13793;SDS011;31160;49.500;7.772;2023-04-24T11:20:42;4.73;;;2.70;;
13793;SDS011;31160;49.500;7.772;2023-04-24T11:23:11;5.47;;;2.80;;
13793;SDS011;31160;49.500;7.772;2023-04-24T11:25:39;7.00;;;2.13;;
13793;SDS011;31160;49.500;7.772;2023-04-24T11:28:07;4.80;;;2.83;;
13793;SDS011;31160;49.500;7.772;2023-04-24T11:30:39;5.13;;;3.03;;
13793;SDS011;31160;49.500;7.772;2023-04-24T11:33:06;6.53;;;2.80;;
13793;SDS011;31160;49.500;7.772;2023-04-24T11:35:39;4.47;;;1.93;;
13793;SDS011;31160;49.500;7.772;2023-04-24T11:38:06;3.87;;;2.73;;
13793;SDS011;31160;49.500;7.772;2023-04-24T11:40:50;3.80;;;2.20;;
13793;SDS011;31160;49.500;7.772;2023-04-24T11:43:18;4.60;;;2.30;;
13793;SDS011;31160;49.500;7.772;2023-04-24T11:45:49;7.83;;;3.60;;
13793;SDS011;31160;49.500;7.772;2023-04-24T11:48:20;5.03;;;2.70;;
13793;SDS011;31160;49.500;7.772;2023-04-24T11:50:50;3.80;;;2.40;;
13793;SDS011;31160;49.500;7.772;2023-04-24T11:53:18;5.23;;;2.30;;
13793;SDS011;31160;49.500;7.772;2023-04-24T11:55:46;6.30;;;3.17;;
13793;SDS011;31160;49.500;7.772;2023-04-24T11:58:13;7.83;;;3.00;;
13793;SDS011;31160;49.500;7.772;2023-04-24T12:00:40;6.13;;;2.57;;
13793;SDS011;31160;49.500;7.772;2023-04-24T12:03:10;6.77;;;2.83;;
13793;SDS011;31160;49.500;7.772;2023-04-24T12:05:38;4.87;;;2.30;;
13793;SDS011;31160;49.500;7.772;2023-04-24T12:08:06;4.83;;;2.43;;
13793;SDS011;31160;49.500;7.772;2023-04-24T12:10:33;2.70;;;2.07;;
13793;SDS011;31160;49.500;7.772;2023-04-24T12:13:01;6.80;;;2.50;;
13793;SDS011;31160;49.500;7.772;2023-04-24T12:15:27;4.30;;;2.40;;
13793;SDS011;31160;49.500;7.772;2023-04-24T12:17:55;5.70;;;2.83;;
13793;SDS011;31160;49.500;7.772;2023-04-24T12:20:31;4.60;;;2.80;;
13793;SDS011;31160;49.500;7.772;2023-04-24T12:23:00;4.53;;;2.63;;
13793;SDS011;31160;49.500;7.772;2023-04-24T12:25:33;4.50;;;2.83;;
13793;SDS011;31160;49.500;7.772;2023-04-24T12:30:31;5.30;;;3.30;;
13793;SDS011;31160;49.500;7.772;2023-04-24T12:33:05;4.60;;;2.03;;
13793;SDS011;31160;49.500;7.772;2023-04-24T12:35:32;4.03;;;2.63;;
13793;SDS011;31160;49.500;7.772;2023-04-24T12:38:10;3.30;;;3.00;;
13793;SDS011;31160;49.500;7.772;2023-04-24T12:40:40;4.20;;;2.90;;
13793;SDS011;31160;49.500;7.772;2023-04-24T12:43:15;3.43;;;2.53;;
13793;SDS011;31160;49.500;7.772;2023-04-24T12:45:43;9.37;;;3.30;;
13793;SDS011;31160;49.500;7.772;2023-04-24T12:48:11;4.50;;;2.20;;
13793;SDS011;31160;49.500;7.772;2023-04-24T12:50:40;4.97;;;3.20;;
13793;SDS011;31160;49.500;7.772;2023-04-24T12:53:10;4.30;;;2.30;;
13793;SDS011;31160;49.500;7.772;2023-04-24T12:55:37;3.70;;;2.30;;
13793;SDS011;31160;49.500;7.772;2023-04-24T12:58:04;4.60;;;2.60;;
13793;SDS011;31160;49.500;7.772;2023-04-24T13:00:31;4.63;;;2.77;;
13793;SDS011;31160;49.500;7.772;2023-04-24T13:02:58;6.00;;;2.57;;
13793;SDS011;31160;49.500;7.772;2023-04-24T13:05:25;4.17;;;2.77;;
13793;SDS011;31160;49.500;7.772;2023-04-24T13:07:52;4.60;;;3.00;;
13793;SDS011;31160;49.500;7.772;2023-04-24T13:10:19;5.17;;;2.00;;
13793;SDS011;31160;49.500;7.772;2023-04-24T13:12:46;4.53;;;2.67;;
13793;SDS011;31160;49.500;7.772;2023-04-24T13:15:12;6.47;;;2.70;;
13793;SDS011;31160;49.500;7.772;2023-04-24T13:17:39;4.20;;;2.77;;
13793;SDS011;31160;49.500;7.772;2023-04-24T13:20:06;4.03;;;3.00;;
13793;SDS011;31160;49.500;7.772;2023-04-24T13:22:33;6.30;;;3.00;;
13793;SDS011;31160;49.500;7.772;2023-04-24T13:25:00;4.17;;;2.90;;
13793;SDS011;31160;49.500;7.772;2023-04-24T13:27:27;2.90;;;2.47;;
13793;SDS011;31160;49.500;7.772;2023-04-24T13:29:53;3.87;;;2.27;;
13793;SDS011;31160;49.500;7.772;2023-04-24T13:32:20;4.33;;;2.67;;
13793;SDS011;31160;49.500;7.772;2023-04-24T13:34:47;3.13;;;2.30;;
13793;SDS011;31160;49.500;7.772;2023-04-24T13:37:14;4.73;;;2.47;;
13793;SDS011;31160;49.500;7.772;2023-04-24T13:39:41;4.67;;;2.60;;
13793;SDS011;31160;49.500;7.772;2023-04-24T13:42:08;8.10;;;3.47;;
13793;SDS011;31160;49.500;7.772;2023-04-24T13:44:35;4.47;;;3.23;;
13793;SDS011;31160;49.500;7.772;2023-04-24T13:47:01;3.70;;;3.03;;
13793;SDS011;31160;49.500;7.772;2023-04-24T13:49:28;4.77;;;2.87;;
13793;SDS011;31160;49.500;7.772;2023-04-24T13:51:55;7.60;;;4.33;;
13793;SDS011;31160;49.500;7.772;2023-04-24T13:54:22;5.50;;;3.20;;
13793;SDS011;31160;49.500;7.772;2023-04-24T13:56:52;8.37;;;3.20;;
13793;SDS011;31160;49.500;7.772;2023-04-24T13:59:22;5.43;;;3.03;;
13793;SDS011;31160;49.500;7.772;2023-04-24T14:01:48;3.93;;;3.07;;
13793;SDS011;31160;49.500;7.772;2023-04-24T14:04:15;6.73;;;2.90;;
13793;SDS011;31160;49.500;7.772;2023-04-24T14:06:43;4.43;;;2.70;;
13793;SDS011;31160;49.500;7.772;2023-04-24T14:09:10;4.63;;;2.00;;
13793;SDS011;31160;49.500;7.772;2023-04-24T14:11:37;3.90;;;2.10;;
13793;SDS011;31160;49.500;7.772;2023-04-24T14:14:03;5.00;;;3.13;;
13793;SDS011;31160;49.500;7.772;2023-04-24T14:16:31;4.03;;;2.33;;
13793;SDS011;31160;49.500;7.772;2023-04-24T14:18:58;3.43;;;2.27;;
13793;SDS011;31160;49.500;7.772;2023-04-24T14:21:25;3.43;;;2.50;;
13793;SDS011;31160;49.500;7.772;2023-04-24T14:23:51;3.00;;;2.67;;
13793;SDS011;31160;49.500;7.772;2023-04-24T14:26:19;3.73;;;2.30;;
13793;SDS011;31160;49.500;7.772;2023-04-24T14:28:45;2.73;;;1.90;;
13793;SDS011;31160;49.500;7.772;2023-04-24T14:31:12;11.63;;;7.73;;
13793;SDS011;31160;49.500;7.772;2023-04-24T14:33:39;2.00;;;1.53;;
13793;SDS011;31160;49.500;7.772;2023-04-24T14:36:06;4.73;;;1.90;;
13793;SDS011;31160;49.500;7.772;2023-04-24T14:38:33;3.87;;;2.50;;
13793;SDS011;31160;49.500;7.772;2023-04-24T14:41:01;3.57;;;2.50;;
13793;SDS011;31160;49.500;7.772;2023-04-24T14:43:38;2.57;;;1.80;;
13793;SDS011;31160;49.500;7.772;2023-04-24T14:46:05;2.67;;;2.10;;
13793;SDS011;31160;49.500;7.772;2023-04-24T14:48:31;4.97;;;2.50;;
13793;SDS011;31160;49.500;7.772;2023-04-24T14:50:58;3.13;;;2.20;;
13793;SDS011;31160;49.500;7.772;2023-04-24T14:53:25;3.53;;;2.20;;
13793;SDS011;31160;49.500;7.772;2023-04-24T14:55:52;3.20;;;2.10;;
13793;SDS011;31160;49.500;7.772;2023-04-24T14:58:19;3.73;;;2.23;;
13793;SDS011;31160;49.500;7.772;2023-04-24T15:00:46;4.60;;;2.17;;
13793;SDS011;31160;49.500;7.772;2023-04-24T15:03:15;5.30;;;1.97;;
13793;SDS011;31160;49.500;7.772;2023-04-24T15:05:44;3.87;;;1.90;;